<?xml version="1.0" encoding="UTF-8" standalone="no" ?>
<gpx xmlns="http://www.topografix.com/GPX/1/1" xmlns:xsi="http://www.w3.org/2001/XMLSchema-instance" xsi:schemaLocation="http://www.topografix.com/GPX/1/1 http://www.topografix.com/GPX/1/1/gpx.xsd" version="1.1" creator="VisuGPX - https://www.visugpx.com">
  <metadata>
    <name>Moissac _ Aire sur l'Ardour</name>
    <desc><![CDATA[GR25]]></desc>
  </metadata>
  <wpt lat="44.09542" lon="1.00183">
    <ele>100.2</ele>
    <name><![CDATA[Chambre Pugnal]]></name>
    <type><![CDATA[hotel]]></type>
  </wpt>
  <wpt lat="44.00962" lon="0.80449">
    <ele>114</ele>
  </wpt>
  <trk>
    <name><![CDATA[Moissac _ Aire sur l'Ardour_1]]></name>
    <extensions>
      <line xmlns="http://www.topografix.com/GPX/gpx_style/0/2">
        <color>0000FF</color>
        <width>4</width>
      </line>
    </extensions>
    <trkseg>
      <trkpt lat="44.10413" lon="1.08796">
        <ele>75.294</ele>
        <time>2016-09-26T18:15:46Z</time>
      </trkpt>
      <trkpt lat="44.10401" lon="1.08699">
        <ele>76.941</ele>
        <time>2016-09-26T18:16:06Z</time>
      </trkpt>
      <trkpt lat="44.10412" lon="1.08577">
        <ele>76.79</ele>
        <time>2016-09-26T18:16:26Z</time>
      </trkpt>
      <trkpt lat="44.10387" lon="1.08489">
        <ele>78.369</ele>
        <time>2021-01-03T09:22:20Z</time>
      </trkpt>
      <trkpt lat="44.10274" lon="1.08559">
        <ele>77.845</ele>
        <time>2019-03-30T16:39:28Z</time>
      </trkpt>
      <trkpt lat="44.10197" lon="1.08677">
        <ele>74.066</ele>
        <time>2019-03-30T16:39:48Z</time>
      </trkpt>
      <trkpt lat="44.10163" lon="1.08771">
        <ele>72.549</ele>
        <time>2019-03-30T16:40:08Z</time>
      </trkpt>
      <trkpt lat="44.1001" lon="1.0868">
        <ele>69.878</ele>
        <time>2021-01-03T09:23:40Z</time>
      </trkpt>
      <trkpt lat="44.09955" lon="1.086">
        <ele>66.886</ele>
        <time>2021-01-03T09:24:00Z</time>
      </trkpt>
      <trkpt lat="44.09955" lon="1.08559">
        <ele>67.16</ele>
        <time>2021-01-03T09:24:20Z</time>
      </trkpt>
      <trkpt lat="44.09974" lon="1.08545">
        <ele>69.426</ele>
        <time>2021-01-03T09:24:40Z</time>
      </trkpt>
      <trkpt lat="44.09961" lon="1.08405">
        <ele>68.608</ele>
        <time>2021-01-03T09:25:00Z</time>
      </trkpt>
      <trkpt lat="44.09959" lon="1.08269">
        <ele>67.674</ele>
        <time>2019-03-30T16:41:28Z</time>
      </trkpt>
      <trkpt lat="44.09977" lon="1.08153">
        <ele>71.381</ele>
        <time>2019-03-30T16:41:48Z</time>
      </trkpt>
      <trkpt lat="44.09993" lon="1.07804">
        <ele>68.33</ele>
        <time>2019-03-30T16:42:08Z</time>
      </trkpt>
      <trkpt lat="44.10054" lon="1.07812">
        <ele>69.089</ele>
        <time>2019-03-30T16:42:28Z</time>
      </trkpt>
      <trkpt lat="44.10084" lon="1.07792">
        <ele>70.025</ele>
        <time>2019-03-30T16:42:48Z</time>
      </trkpt>
      <trkpt lat="44.10083" lon="1.07397">
        <ele>70.096</ele>
        <time>2016-09-26T18:20:26Z</time>
      </trkpt>
      <trkpt lat="44.10051" lon="1.07195">
        <ele>73.869</ele>
        <time>2016-09-26T18:20:46Z</time>
      </trkpt>
      <trkpt lat="44.09942" lon="1.06877">
        <ele>65.018</ele>
        <time>2016-09-26T18:21:06Z</time>
      </trkpt>
      <trkpt lat="44.09845" lon="1.06676">
        <ele>71.013</ele>
        <time>2016-09-26T18:21:26Z</time>
      </trkpt>
      <trkpt lat="44.0966" lon="1.06407">
        <ele>67.543</ele>
        <time>2016-09-26T18:21:46Z</time>
      </trkpt>
      <trkpt lat="44.09596" lon="1.06279">
        <ele>68.907</ele>
        <time>2016-09-26T18:22:06Z</time>
      </trkpt>
      <trkpt lat="44.09556" lon="1.06124">
        <ele>68.008</ele>
        <time>2016-09-26T18:22:26Z</time>
      </trkpt>
      <trkpt lat="44.09521" lon="1.05729">
        <ele>72.027</ele>
        <time>2016-09-26T18:22:46Z</time>
      </trkpt>
      <trkpt lat="44.09487" lon="1.05543">
        <ele>71.094</ele>
        <time>2016-09-26T18:23:06Z</time>
      </trkpt>
      <trkpt lat="44.09405" lon="1.05296">
        <ele>69.993</ele>
        <time>2016-09-26T18:23:26Z</time>
      </trkpt>
      <trkpt lat="44.09298" lon="1.05108">
        <ele>68.792</ele>
        <time>2019-03-30T16:46:28Z</time>
      </trkpt>
      <trkpt lat="44.09371" lon="1.05045">
        <ele>79.748</ele>
        <time>2019-03-30T16:46:48Z</time>
      </trkpt>
      <trkpt lat="44.09481" lon="1.05261">
        <ele>74.979</ele>
        <time>2019-03-30T16:47:08Z</time>
      </trkpt>
      <trkpt lat="44.09521" lon="1.05294">
        <ele>72.982</ele>
        <time>2019-03-30T16:47:28Z</time>
      </trkpt>
      <trkpt lat="44.09535" lon="1.05315">
        <ele>73.231</ele>
        <time>2021-01-03T09:31:40Z</time>
      </trkpt>
      <trkpt lat="44.09547" lon="1.05253">
        <ele>77.676</ele>
        <time>2021-01-03T09:32:00Z</time>
      </trkpt>
      <trkpt lat="44.09554" lon="1.0517">
        <ele>78.49</ele>
        <time>2021-01-03T09:32:20Z</time>
      </trkpt>
      <trkpt lat="44.09568" lon="1.05109">
        <ele>81.119</ele>
        <time>2021-01-03T09:32:40Z</time>
      </trkpt>
      <trkpt lat="44.09593" lon="1.05026">
        <ele>78.608</ele>
        <time>2021-01-03T09:33:00Z</time>
      </trkpt>
      <trkpt lat="44.09645" lon="1.04931">
        <ele>82.183</ele>
        <time>2021-01-03T09:33:20Z</time>
      </trkpt>
      <trkpt lat="44.09683" lon="1.04801">
        <ele>86.39</ele>
        <time>2021-01-03T09:33:40Z</time>
      </trkpt>
      <trkpt lat="44.09753" lon="1.04612">
        <ele>84.139</ele>
        <time>2021-01-03T09:34:00Z</time>
      </trkpt>
      <trkpt lat="44.09816" lon="1.04416">
        <ele>86.628</ele>
        <time>2021-01-03T09:34:20Z</time>
      </trkpt>
      <trkpt lat="44.09859" lon="1.04363">
        <ele>87.284</ele>
        <time>2021-01-03T09:34:40Z</time>
      </trkpt>
      <trkpt lat="44.09905" lon="1.04318">
        <ele>88.635</ele>
        <time>2021-01-03T09:35:00Z</time>
      </trkpt>
      <trkpt lat="44.09926" lon="1.04259">
        <ele>90.878</ele>
        <time>2021-01-03T09:35:20Z</time>
      </trkpt>
      <trkpt lat="44.09944" lon="1.04179">
        <ele>92.297</ele>
        <time>2021-01-03T09:35:40Z</time>
      </trkpt>
      <trkpt lat="44.09967" lon="1.04149">
        <ele>91.462</ele>
        <time>2021-01-03T09:36:00Z</time>
      </trkpt>
      <trkpt lat="44.09954" lon="1.04129">
        <ele>93.583</ele>
        <time>2021-01-03T09:36:20Z</time>
      </trkpt>
      <trkpt lat="44.09909" lon="1.04159">
        <ele>102.211</ele>
        <time>2021-01-03T09:36:40Z</time>
      </trkpt>
      <trkpt lat="44.09882" lon="1.04101">
        <ele>109.308</ele>
        <time>2021-01-03T09:37:00Z</time>
      </trkpt>
      <trkpt lat="44.09858" lon="1.0398">
        <ele>123.512</ele>
        <time>2021-01-03T09:37:20Z</time>
      </trkpt>
      <trkpt lat="44.09881" lon="1.03936">
        <ele>128.929</ele>
        <time>2021-01-03T09:37:40Z</time>
      </trkpt>
      <trkpt lat="44.09861" lon="1.03791">
        <ele>142.558</ele>
        <time>2021-01-03T09:38:00Z</time>
      </trkpt>
      <trkpt lat="44.09816" lon="1.03695">
        <ele>152.357</ele>
        <time>2021-01-03T09:38:20Z</time>
      </trkpt>
      <trkpt lat="44.0971" lon="1.03654">
        <ele>163.773</ele>
        <time>2021-01-03T09:38:40Z</time>
      </trkpt>
      <trkpt lat="44.09616" lon="1.03585">
        <ele>173.134</ele>
        <time>2021-01-03T09:39:00Z</time>
      </trkpt>
      <trkpt lat="44.09636" lon="1.03504">
        <ele>173.377</ele>
        <time>2019-03-30T16:55:28Z</time>
      </trkpt>
      <trkpt lat="44.09676" lon="1.03239">
        <ele>170.096</ele>
        <time>2019-03-30T16:55:48Z</time>
      </trkpt>
      <trkpt lat="44.09737" lon="1.03254">
        <ele>170.681</ele>
        <time>2021-01-03T09:40:00Z</time>
      </trkpt>
      <trkpt lat="44.09769" lon="1.03246">
        <ele>165.661</ele>
        <time>2019-03-30T16:56:08Z</time>
      </trkpt>
      <trkpt lat="44.09785" lon="1.02971">
        <ele>128.917</ele>
        <time>2019-03-30T16:56:28Z</time>
      </trkpt>
      <trkpt lat="44.09774" lon="1.02917">
        <ele>124.008</ele>
        <time>2019-03-30T16:56:48Z</time>
      </trkpt>
      <trkpt lat="44.09733" lon="1.02865">
        <ele>124.614</ele>
        <time>2019-03-30T16:57:08Z</time>
      </trkpt>
      <trkpt lat="44.09712" lon="1.02788">
        <ele>129.691</ele>
        <time>2019-03-30T16:57:28Z</time>
      </trkpt>
      <trkpt lat="44.09674" lon="1.02762">
        <ele>136.91</ele>
        <time>2019-03-30T16:57:48Z</time>
      </trkpt>
      <trkpt lat="44.09677" lon="1.02704">
        <ele>127.729</ele>
        <time>2019-03-30T16:58:08Z</time>
      </trkpt>
      <trkpt lat="44.09753" lon="1.02734">
        <ele>115.695</ele>
        <time>2019-03-30T16:58:28Z</time>
      </trkpt>
      <trkpt lat="44.09773" lon="1.0271">
        <ele>110.436</ele>
        <time>2019-03-30T16:58:48Z</time>
      </trkpt>
      <trkpt lat="44.0976" lon="1.02537">
        <ele>100.679</ele>
        <time>2019-03-30T16:59:08Z</time>
      </trkpt>
      <trkpt lat="44.09789" lon="1.02514">
        <ele>98.068</ele>
        <time>2019-03-30T16:59:28Z</time>
      </trkpt>
      <trkpt lat="44.09804" lon="1.0238">
        <ele>113.524</ele>
        <time>2019-03-30T16:59:48Z</time>
      </trkpt>
      <trkpt lat="44.09788" lon="1.02272">
        <ele>132.904</ele>
        <time>2019-03-30T17:00:08Z</time>
      </trkpt>
      <trkpt lat="44.09794" lon="1.0215">
        <ele>153.214</ele>
        <time>2019-03-30T17:00:28Z</time>
      </trkpt>
      <trkpt lat="44.09865" lon="1.01955">
        <ele>163.608</ele>
        <time>2019-03-30T17:00:48Z</time>
      </trkpt>
      <trkpt lat="44.09806" lon="1.01931">
        <ele>161.598</ele>
        <time>2019-03-30T17:01:08Z</time>
      </trkpt>
      <trkpt lat="44.09729" lon="1.01835">
        <ele>161.155</ele>
        <time>2019-03-30T17:01:28Z</time>
      </trkpt>
      <trkpt lat="44.09712" lon="1.01775">
        <ele>163.414</ele>
        <time>2019-03-30T17:01:48Z</time>
      </trkpt>
      <trkpt lat="44.097" lon="1.01676">
        <ele>172.073</ele>
        <time>2019-03-30T17:02:08Z</time>
      </trkpt>
      <trkpt lat="44.09647" lon="1.0153">
        <ele>172.359</ele>
        <time>2019-03-30T17:02:28Z</time>
      </trkpt>
      <trkpt lat="44.0961" lon="1.01451">
        <ele>173.04</ele>
        <time>2019-03-30T17:02:48Z</time>
      </trkpt>
      <trkpt lat="44.0963" lon="1.01322">
        <ele>175.833</ele>
        <time>2019-03-30T17:03:08Z</time>
      </trkpt>
      <trkpt lat="44.0965" lon="1.01341">
        <ele>174.532</ele>
        <time>2019-03-30T17:03:28Z</time>
      </trkpt>
      <trkpt lat="44.09689" lon="1.01343">
        <ele>170.891</ele>
        <time>2019-03-30T17:03:48Z</time>
      </trkpt>
      <trkpt lat="44.09743" lon="1.01261">
        <ele>165.281</ele>
        <time>2019-03-30T17:04:08Z</time>
      </trkpt>
      <trkpt lat="44.09778" lon="1.01211">
        <ele>160.319</ele>
        <time>2019-03-30T17:04:28Z</time>
      </trkpt>
      <trkpt lat="44.09844" lon="1.01097">
        <ele>142.708</ele>
        <time>2019-03-30T17:04:48Z</time>
      </trkpt>
      <trkpt lat="44.099" lon="1.01035">
        <ele>134.825</ele>
        <time>2019-03-30T17:05:08Z</time>
      </trkpt>
      <trkpt lat="44.09964" lon="1.00874">
        <ele>115.872</ele>
        <time>2019-03-30T17:05:28Z</time>
      </trkpt>
      <trkpt lat="44.10098" lon="1.00717">
        <ele>96.111</ele>
        <time>2019-03-30T17:05:48Z</time>
      </trkpt>
      <trkpt lat="44.0998" lon="1.00526">
        <ele>93.67</ele>
        <time>2019-03-30T17:06:08Z</time>
      </trkpt>
      <trkpt lat="44.09918" lon="1.00461">
        <ele>90.566</ele>
        <time>2019-03-30T17:06:28Z</time>
      </trkpt>
      <trkpt lat="44.09869" lon="1.0035">
        <ele>90.557</ele>
        <time>2019-03-30T17:06:48Z</time>
      </trkpt>
      <trkpt lat="44.09786" lon="1.00254">
        <ele>93.85</ele>
        <time>2019-03-30T17:07:08Z</time>
      </trkpt>
      <trkpt lat="44.09702" lon="1.00191">
        <ele>87.229</ele>
        <time>2019-03-30T17:07:28Z</time>
      </trkpt>
      <trkpt lat="44.09686" lon="1.00123">
        <ele>85.582</ele>
        <time>2019-03-30T17:07:48Z</time>
      </trkpt>
      <trkpt lat="44.09482" lon="0.99853">
        <ele>82.7</ele>
      </trkpt>
      <trkpt lat="44.0947" lon="0.99875">
        <ele>83.7</ele>
      </trkpt>
      <trkpt lat="44.09511" lon="0.99945">
        <ele>85.3</ele>
      </trkpt>
      <trkpt lat="44.09544" lon="1.00033">
        <ele>87.9</ele>
      </trkpt>
      <trkpt lat="44.09501" lon="1.00139">
        <ele>98</ele>
      </trkpt>
      <trkpt lat="44.09538" lon="1.00183">
        <ele>100.2</ele>
        <time>2019-03-30T17:08:08Z</time>
      </trkpt>
    </trkseg>
  </trk>
</gpx>